sensor_id;sensor_type;location;lat;lon;timestamp;pressure;altitude;pressure_sealevel;temperature;humidity
56719;BME280;42597;40.636;0.278;2023-02-03T00:01:30;98488.84;;;9.22;42.88
56719;BME280;42597;40.636;0.278;2023-02-03T00:03:56;98497.88;;;8.90;43.86
56719;BME280;42597;40.636;0.278;2023-02-03T00:06:21;98506.72;;;9.04;43.40
56719;BME280;42597;40.636;0.278;2023-02-03T00:08:47;98499.28;;;8.60;46.02
56719;BME280;42597;40.636;0.278;2023-02-03T00:11:13;98510.00;;;8.32;47.71
56719;BME280;42597;40.636;0.278;2023-02-03T00:13:39;98499.50;;;8.50;46.95
56719;BME280;42597;40.636;0.278;2023-02-03T00:16:05;98498.50;;;8.73;46.88
56719;BME280;42597;40.636;0.278;2023-02-03T00:18:31;98497.66;;;9.14;46.54
56719;BME280;42597;40.636;0.278;2023-02-03T00:20:57;98504.97;;;8.72;46.63
56719;BME280;42597;40.636;0.278;2023-02-03T00:23:23;98509.56;;;8.58;46.23
56719;BME280;42597;40.636;0.278;2023-02-03T00:25:50;98497.88;;;8.76;46.84
56719;BME280;42597;40.636;0.278;2023-02-03T00:28:16;98500.47;;;9.09;46.67
56719;BME280;42597;40.636;0.278;2023-02-03T00:30:42;98502.19;;;9.41;48.99
56719;BME280;42597;40.636;0.278;2023-02-03T00:33:07;98503.84;;;9.14;46.85
56719;BME280;42597;40.636;0.278;2023-02-03T00:35:36;98499.03;;;9.11;48.11
56719;BME280;42597;40.636;0.278;2023-02-03T00:38:02;98492.88;;;8.83;46.90
56719;BME280;42597;40.636;0.278;2023-02-03T00:40:27;98498.38;;;8.78;47.15
56719;BME280;42597;40.636;0.278;2023-02-03T00:42:54;98498.00;;;8.85;46.88
56719;BME280;42597;40.636;0.278;2023-02-03T00:45:20;98505.28;;;8.84;46.86
56719;BME280;42597;40.636;0.278;2023-02-03T00:47:45;98509.06;;;8.70;46.94
56719;BME280;42597;40.636;0.278;2023-02-03T00:50:11;98502.28;;;8.72;46.82
56719;BME280;42597;40.636;0.278;2023-02-03T00:52:37;98505.28;;;8.84;46.62
56719;BME280;42597;40.636;0.278;2023-02-03T00:55:03;98509.34;;;8.68;47.18
56719;BME280;42597;40.636;0.278;2023-02-03T00:57:28;98514.84;;;8.49;46.82
56719;BME280;42597;40.636;0.278;2023-02-03T00:59:54;98505.66;;;8.50;47.56
56719;BME280;42597;40.636;0.278;2023-02-03T01:02:20;98508.06;;;8.52;47.11
56719;BME280;42597;40.636;0.278;2023-02-03T01:04:45;98517.06;;;8.61;47.21
56719;BME280;42597;40.636;0.278;2023-02-03T01:07:11;98511.25;;;8.54;46.85
56719;BME280;42597;40.636;0.278;2023-02-03T01:09:37;98508.88;;;8.52;47.36
56719;BME280;42597;40.636;0.278;2023-02-03T01:12:03;98509.34;;;8.40;47.57
56719;BME280;42597;40.636;0.278;2023-02-03T01:14:29;98504.63;;;8.32;47.16
56719;BME280;42597;40.636;0.278;2023-02-03T01:16:55;98506.22;;;8.33;47.25
56719;BME280;42597;40.636;0.278;2023-02-03T01:19:21;98507.16;;;8.43;46.90
56719;BME280;42597;40.636;0.278;2023-02-03T01:21:47;98508.31;;;8.36;46.47
56719;BME280;42597;40.636;0.278;2023-02-03T01:24:12;98507.66;;;8.58;46.94
56719;BME280;42597;40.636;0.278;2023-02-03T01:26:40;98508.25;;;8.42;46.17
56719;BME280;42597;40.636;0.278;2023-02-03T01:29:06;98503.66;;;8.56;45.95
56719;BME280;42597;40.636;0.278;2023-02-03T01:31:39;98508.59;;;8.35;45.81
56719;BME280;42597;40.636;0.278;2023-02-03T01:34:07;98506.81;;;8.30;45.76
56719;BME280;42597;40.636;0.278;2023-02-03T01:36:35;98509.19;;;8.18;46.01
56719;BME280;42597;40.636;0.278;2023-02-03T01:39:01;98501.97;;;8.87;50.29
56719;BME280;42597;40.636;0.278;2023-02-03T01:41:29;98504.34;;;8.48;45.39
56719;BME280;42597;40.636;0.278;2023-02-03T01:43:57;98510.78;;;8.19;46.25
56719;BME280;42597;40.636;0.278;2023-02-03T01:46:30;98509.16;;;8.04;46.17
56719;BME280;42597;40.636;0.278;2023-02-03T01:49:26;98507.25;;;8.37;46.91
56719;BME280;42597;40.636;0.278;2023-02-03T01:51:53;98494.09;;;8.63;48.08
56719;BME280;42597;40.636;0.278;2023-02-03T01:54:25;98508.59;;;8.35;45.84
56719;BME280;42597;40.636;0.278;2023-02-03T01:56:57;98504.22;;;8.25;45.30
56719;BME280;42597;40.636;0.278;2023-02-03T01:59:23;98498.06;;;8.38;45.43
56719;BME280;42597;40.636;0.278;2023-02-03T02:01:52;98500.03;;;8.33;44.83
56719;BME280;42597;40.636;0.278;2023-02-03T02:04:19;98487.66;;;8.32;45.28
56719;BME280;42597;40.636;0.278;2023-02-03T02:06:46;98493.00;;;8.04;45.50
56719;BME280;42597;40.636;0.278;2023-02-03T02:09:13;98490.84;;;8.34;47.09
56719;BME280;42597;40.636;0.278;2023-02-03T02:11:39;98487.81;;;8.40;46.09
56719;BME280;42597;40.636;0.278;2023-02-03T02:14:05;98488.56;;;7.62;47.50
56719;BME280;42597;40.636;0.278;2023-02-03T02:17:04;98490.00;;;8.06;46.86
56719;BME280;42597;40.636;0.278;2023-02-03T02:22:39;98490.66;;;8.30;45.09
56719;BME280;42597;40.636;0.278;2023-02-03T02:33:09;98490.50;;;7.75;46.48
56719;BME280;42597;40.636;0.278;2023-02-03T02:40:55;98493.16;;;7.61;46.71
56719;BME280;42597;40.636;0.278;2023-02-03T02:43:28;98483.78;;;7.91;46.50
56719;BME280;42597;40.636;0.278;2023-02-03T02:46:02;98484.22;;;7.99;45.73
56719;BME280;42597;40.636;0.278;2023-02-03T02:51:11;98485.88;;;7.81;46.87
56719;BME280;42597;40.636;0.278;2023-02-03T02:53:43;98487.69;;;7.66;46.78
56719;BME280;42597;40.636;0.278;2023-02-03T02:56:12;98493.88;;;7.67;47.14
56719;BME280;42597;40.636;0.278;2023-02-03T02:58:40;98490.50;;;7.75;47.53
56719;BME280;42597;40.636;0.278;2023-02-03T03:01:08;98491.13;;;7.72;47.30
56719;BME280;42597;40.636;0.278;2023-02-03T03:03:34;98487.91;;;7.70;47.04
56719;BME280;42597;40.636;0.278;2023-02-03T03:06:07;98481.84;;;8.11;48.23
56719;BME280;42597;40.636;0.278;2023-02-03T03:08:44;98487.34;;;7.73;47.13
56719;BME280;42597;40.636;0.278;2023-02-03T03:11:11;98490.84;;;7.87;46.36
56719;BME280;42597;40.636;0.278;2023-02-03T03:13:41;98490.50;;;7.75;46.65
56719;BME280;42597;40.636;0.278;2023-02-03T03:16:09;98487.81;;;8.08;46.41
56719;BME280;42597;40.636;0.278;2023-02-03T03:21:11;98486.13;;;7.79;46.75
56719;BME280;42597;40.636;0.278;2023-02-03T03:23:40;98492.06;;;7.95;48.50
56719;BME280;42597;40.636;0.278;2023-02-03T03:26:14;98491.22;;;7.48;47.71
56719;BME280;42597;40.636;0.278;2023-02-03T03:28:50;98494.03;;;7.57;47.12
56719;BME280;42597;40.636;0.278;2023-02-03T03:31:18;98495.75;;;7.85;46.21
56719;BME280;42597;40.636;0.278;2023-02-03T03:33:45;98496.38;;;7.96;47.42
56719;BME280;42597;40.636;0.278;2023-02-03T03:36:24;98501.00;;;7.58;47.66
56719;BME280;42597;40.636;0.278;2023-02-03T03:39:21;98499.91;;;7.59;47.62
56719;BME280;42597;40.636;0.278;2023-02-03T03:47:42;98501.00;;;7.58;47.42
56719;BME280;42597;40.636;0.278;2023-02-03T03:50:15;98506.53;;;7.66;47.31
56719;BME280;42597;40.636;0.278;2023-02-03T03:52:43;98519.22;;;7.80;47.28
56719;BME280;42597;40.636;0.278;2023-02-03T03:55:12;98518.19;;;7.24;48.96
56719;BME280;42597;40.636;0.278;2023-02-03T03:57:52;98510.03;;;7.29;49.01
56719;BME280;42597;40.636;0.278;2023-02-03T04:00:20;98516.56;;;7.42;48.25
56719;BME280;42597;40.636;0.278;2023-02-03T04:02:51;98515.91;;;7.31;48.64
56719;BME280;42597;40.636;0.278;2023-02-03T04:05:19;98518.53;;;7.36;48.03
56719;BME280;42597;40.636;0.278;2023-02-03T04:07:46;98517.72;;;7.17;48.72
56719;BME280;42597;40.636;0.278;2023-02-03T04:10:30;98513.94;;;7.18;48.73
56719;BME280;42597;40.636;0.278;2023-02-03T04:12:56;98518.88;;;7.11;49.03
56719;BME280;42597;40.636;0.278;2023-02-03T04:15:22;98510.25;;;7.33;48.44
56719;BME280;42597;40.636;0.278;2023-02-03T04:17:48;98514.41;;;7.25;48.63
56719;BME280;42597;40.636;0.278;2023-02-03T04:20:14;98517.00;;;7.30;48.17
56719;BME280;42597;40.636;0.278;2023-02-03T04:22:40;98511.19;;;7.23;49.02
56719;BME280;42597;40.636;0.278;2023-02-03T04:25:06;98513.22;;;7.31;48.30
56719;BME280;42597;40.636;0.278;2023-02-03T04:27:34;98513.22;;;7.31;48.19
56719;BME280;42597;40.636;0.278;2023-02-03T04:30:00;98511.72;;;7.44;48.02
56719;BME280;42597;40.636;0.278;2023-02-03T04:32:26;98512.81;;;7.24;47.90
56719;BME280;42597;40.636;0.278;2023-02-03T04:34:51;98507.44;;;7.24;48.41
56719;BME280;42597;40.636;0.278;2023-02-03T04:37:17;98506.31;;;7.25;47.83
56719;BME280;42597;40.636;0.278;2023-02-03T04:39:43;98502.34;;;7.41;48.13
56719;BME280;42597;40.636;0.278;2023-02-03T04:42:09;98505.38;;;7.54;48.34
56719;BME280;42597;40.636;0.278;2023-02-03T04:44:34;98509.81;;;7.45;48.51
56719;BME280;42597;40.636;0.278;2023-02-03T04:47:00;98505.50;;;7.43;47.58
56719;BME280;42597;40.636;0.278;2023-02-03T04:49:26;98495.66;;;7.20;48.03
56719;BME280;42597;40.636;0.278;2023-02-03T04:51:52;98499.94;;;7.40;48.12
56719;BME280;42597;40.636;0.278;2023-02-03T04:54:17;98494.34;;;7.36;47.65
56719;BME280;42597;40.636;0.278;2023-02-03T04:56:43;98493.91;;;7.29;47.17
56719;BME280;42597;40.636;0.278;2023-02-03T04:59:09;98496.22;;;7.17;47.96
56719;BME280;42597;40.636;0.278;2023-02-03T05:01:34;98504.00;;;7.18;47.92
56719;BME280;42597;40.636;0.278;2023-02-03T05:04:00;98501.88;;;7.34;47.70
56719;BME280;42597;40.636;0.278;2023-02-03T05:06:27;98500.28;;;7.14;48.05
56719;BME280;42597;40.636;0.278;2023-02-03T05:08:57;98503.66;;;7.25;48.11
56719;BME280;42597;40.636;0.278;2023-02-03T05:11:23;98514.66;;;7.05;48.21
56719;BME280;42597;40.636;0.278;2023-02-03T05:13:48;98509.59;;;7.22;47.23
56719;BME280;42597;40.636;0.278;2023-02-03T05:16:14;98510.66;;;7.59;48.35
56719;BME280;42597;40.636;0.278;2023-02-03T05:18:40;98514.78;;;6.95;48.39
56719;BME280;42597;40.636;0.278;2023-02-03T05:21:06;98524.25;;;7.11;47.53
56719;BME280;42597;40.636;0.278;2023-02-03T05:23:32;98519.28;;;6.80;47.67
56719;BME280;42597;40.636;0.278;2023-02-03T05:25:58;98524.03;;;7.07;47.17
56719;BME280;42597;40.636;0.278;2023-02-03T05:28:24;98529.06;;;7.14;45.67
56719;BME280;42597;40.636;0.278;2023-02-03T05:30:50;98532.03;;;7.31;45.45
56719;BME280;42597;40.636;0.278;2023-02-03T05:33:15;98529.16;;;7.28;45.68
56719;BME280;42597;40.636;0.278;2023-02-03T05:35:41;98525.94;;;7.26;45.81
56719;BME280;42597;40.636;0.278;2023-02-03T05:38:07;98530.06;;;7.18;45.67
56719;BME280;42597;40.636;0.278;2023-02-03T05:40:32;98536.00;;;7.15;46.76
56719;BME280;42597;40.636;0.278;2023-02-03T05:43:18;98529.50;;;7.21;46.87
56719;BME280;42597;40.636;0.278;2023-02-03T05:45:44;98534.78;;;7.07;47.02
56719;BME280;42597;40.636;0.278;2023-02-03T05:48:10;98538.81;;;7.48;47.73
56719;BME280;42597;40.636;0.278;2023-02-03T05:50:36;98534.47;;;7.52;47.08
56719;BME280;42597;40.636;0.278;2023-02-03T05:53:03;98533.00;;;7.40;43.87
56719;BME280;42597;40.636;0.278;2023-02-03T05:55:30;98530.94;;;7.51;44.40
56719;BME280;42597;40.636;0.278;2023-02-03T05:57:56;98532.31;;;7.11;44.82
56719;BME280;42597;40.636;0.278;2023-02-03T06:00:22;98528.91;;;7.05;45.00
56719;BME280;42597;40.636;0.278;2023-02-03T06:02:59;98529.63;;;7.11;45.27
56719;BME280;42597;40.636;0.278;2023-02-03T06:05:27;98535.00;;;7.11;44.18
56719;BME280;42597;40.636;0.278;2023-02-03T06:07:53;98528.75;;;6.73;45.60
56719;BME280;42597;40.636;0.278;2023-02-03T06:10:19;98528.06;;;6.86;45.29
56719;BME280;42597;40.636;0.278;2023-02-03T06:12:45;98538.47;;;6.92;45.10
56719;BME280;42597;40.636;0.278;2023-02-03T06:15:12;98532.72;;;6.99;45.19
56719;BME280;42597;40.636;0.278;2023-02-03T06:17:38;98525.25;;;6.96;45.43
56719;BME280;42597;40.636;0.278;2023-02-03T06:20:05;98527.00;;;7.06;46.10
56719;BME280;42597;40.636;0.278;2023-02-03T06:22:31;98527.81;;;7.06;45.76
56719;BME280;42597;40.636;0.278;2023-02-03T06:24:57;98536.22;;;7.00;46.54
56719;BME280;42597;40.636;0.278;2023-02-03T06:27:23;98538.00;;;6.85;46.06
56719;BME280;42597;40.636;0.278;2023-02-03T06:29:49;98540.22;;;6.78;46.95
56719;BME280;42597;40.636;0.278;2023-02-03T06:32:15;98549.06;;;7.03;46.20
56719;BME280;42597;40.636;0.278;2023-02-03T06:34:41;98548.97;;;6.89;45.63
56719;BME280;42597;40.636;0.278;2023-02-03T06:37:06;98550.13;;;6.83;46.08
56719;BME280;42597;40.636;0.278;2023-02-03T06:39:32;98557.19;;;6.98;46.22
56719;BME280;42597;40.636;0.278;2023-02-03T06:41:58;98552.34;;;7.00;46.77
56719;BME280;42597;40.636;0.278;2023-02-03T06:44:24;98553.88;;;7.06;46.69
56719;BME280;42597;40.636;0.278;2023-02-03T06:46:50;98553.72;;;6.97;46.96
56719;BME280;42597;40.636;0.278;2023-02-03T06:49:16;98563.16;;;6.95;47.03
56719;BME280;42597;40.636;0.278;2023-02-03T06:51:43;98554.59;;;6.92;47.50
56719;BME280;42597;40.636;0.278;2023-02-03T06:54:12;98552.34;;;7.00;47.66
56719;BME280;42597;40.636;0.278;2023-02-03T06:56:38;98562.66;;;6.92;48.08
56719;BME280;42597;40.636;0.278;2023-02-03T06:59:04;98568.97;;;7.02;47.59
56719;BME280;42597;40.636;0.278;2023-02-03T07:01:31;98561.22;;;7.19;47.96
56719;BME280;42597;40.636;0.278;2023-02-03T07:03:57;98564.53;;;6.92;48.19
56719;BME280;42597;40.636;0.278;2023-02-03T07:06:24;98569.69;;;6.88;47.82
56719;BME280;42597;40.636;0.278;2023-02-03T07:08:54;98568.41;;;7.05;46.47
56719;BME280;42597;40.636;0.278;2023-02-03T07:11:20;98560.66;;;9.18;57.90
56719;BME280;42597;40.636;0.278;2023-02-03T07:13:46;98565.84;;;10.23;56.12
56719;BME280;42597;40.636;0.278;2023-02-03T07:16:12;98583.44;;;7.86;45.02
56719;BME280;42597;40.636;0.278;2023-02-03T07:18:38;98587.03;;;9.71;49.61
56719;BME280;42597;40.636;0.278;2023-02-03T07:21:05;98592.09;;;7.46;47.87
56719;BME280;42597;40.636;0.278;2023-02-03T07:23:31;98596.78;;;7.16;47.63
56719;BME280;42597;40.636;0.278;2023-02-03T07:26:01;98594.91;;;10.04;58.04
56719;BME280;42597;40.636;0.278;2023-02-03T07:28:38;98586.28;;;11.00;54.62
56719;BME280;42597;40.636;0.278;2023-02-03T07:31:04;98603.78;;;8.90;47.45
56719;BME280;42597;40.636;0.278;2023-02-03T07:33:30;98603.81;;;7.93;47.93
56719;BME280;42597;40.636;0.278;2023-02-03T07:35:57;98597.97;;;7.48;48.55
56719;BME280;42597;40.636;0.278;2023-02-03T07:38:25;98596.31;;;7.52;47.93
56719;BME280;42597;40.636;0.278;2023-02-03T07:40:51;98598.66;;;7.77;48.63
56719;BME280;42597;40.636;0.278;2023-02-03T07:43:17;98600.31;;;7.73;46.92
56719;BME280;42597;40.636;0.278;2023-02-03T07:45:43;98599.53;;;7.73;45.93
56719;BME280;42597;40.636;0.278;2023-02-03T07:48:09;98605.91;;;7.96;47.22
56719;BME280;42597;40.636;0.278;2023-02-03T07:50:35;98602.78;;;7.88;45.60
56719;BME280;42597;40.636;0.278;2023-02-03T07:53:02;98609.69;;;7.95;45.75
56719;BME280;42597;40.636;0.278;2023-02-03T07:55:28;98605.03;;;7.81;44.86
56719;BME280;42597;40.636;0.278;2023-02-03T07:57:55;98610.78;;;7.56;45.71
56719;BME280;42597;40.636;0.278;2023-02-03T08:00:21;98618.22;;;7.64;45.54
56719;BME280;42597;40.636;0.278;2023-02-03T08:02:47;98623.44;;;7.74;45.20
56719;BME280;42597;40.636;0.278;2023-02-03T08:05:13;98607.16;;;7.84;44.19
56719;BME280;42597;40.636;0.278;2023-02-03T08:07:40;98617.03;;;7.89;43.87
56719;BME280;42597;40.636;0.278;2023-02-03T08:10:07;98622.69;;;7.87;44.30
56719;BME280;42597;40.636;0.278;2023-02-03T08:12:33;98621.09;;;7.86;44.08
56719;BME280;42597;40.636;0.278;2023-02-03T08:14:59;98623.72;;;7.91;43.03
56719;BME280;42597;40.636;0.278;2023-02-03T08:17:25;98627.94;;;7.98;43.22
56719;BME280;42597;40.636;0.278;2023-02-03T08:19:51;98627.38;;;8.01;43.82
56719;BME280;42597;40.636;0.278;2023-02-03T08:22:17;98623.00;;;8.05;44.01
56719;BME280;42597;40.636;0.278;2023-02-03T08:24:46;98617.19;;;7.98;43.99
56719;BME280;42597;40.636;0.278;2023-02-03T08:27:14;98621.91;;;8.06;45.43
56719;BME280;42597;40.636;0.278;2023-02-03T08:29:40;98619.16;;;8.90;53.29
56719;BME280;42597;40.636;0.278;2023-02-03T08:32:10;98617.88;;;10.60;53.49
56719;BME280;42597;40.636;0.278;2023-02-03T08:34:36;98613.03;;;11.02;52.90
56719;BME280;42597;40.636;0.278;2023-02-03T08:37:03;98615.94;;;11.14;51.82
56719;BME280;42597;40.636;0.278;2023-02-03T08:39:29;98629.06;;;9.36;45.19
56719;BME280;42597;40.636;0.278;2023-02-03T08:41:55;98628.16;;;8.85;44.63
56719;BME280;42597;40.636;0.278;2023-02-03T08:44:20;98628.41;;;8.70;45.66
56719;BME280;42597;40.636;0.278;2023-02-03T08:46:51;98631.97;;;8.52;45.93
56719;BME280;42597;40.636;0.278;2023-02-03T08:49:17;98630.31;;;8.70;45.27
56719;BME280;42597;40.636;0.278;2023-02-03T08:51:45;98632.59;;;8.76;44.79
56719;BME280;42597;40.636;0.278;2023-02-03T08:54:11;98645.00;;;8.77;44.94
56719;BME280;42597;40.636;0.278;2023-02-03T08:56:37;98634.81;;;8.88;44.32
56719;BME280;42597;40.636;0.278;2023-02-03T08:59:03;98633.25;;;9.01;45.24
56719;BME280;42597;40.636;0.278;2023-02-03T09:01:29;98639.34;;;8.93;44.32
56719;BME280;42597;40.636;0.278;2023-02-03T09:03:55;98631.34;;;8.87;44.37
56719;BME280;42597;40.636;0.278;2023-02-03T09:06:21;98639.66;;;9.19;44.74
56719;BME280;42597;40.636;0.278;2023-02-03T09:08:47;98641.34;;;9.14;44.16
56719;BME280;42597;40.636;0.278;2023-02-03T09:11:15;98636.34;;;9.08;43.23
56719;BME280;42597;40.636;0.278;2023-02-03T09:13:42;98635.84;;;9.06;43.14
56719;BME280;42597;40.636;0.278;2023-02-03T09:16:11;98640.56;;;9.14;42.77
56719;BME280;42597;40.636;0.278;2023-02-03T09:18:38;98639.84;;;9.22;43.54
56719;BME280;42597;40.636;0.278;2023-02-03T09:21:07;98640.03;;;9.39;43.15
56719;BME280;42597;40.636;0.278;2023-02-03T09:23:36;98629.47;;;9.29;42.69
56719;BME280;42597;40.636;0.278;2023-02-03T09:26:03;98637.47;;;9.34;43.10
56719;BME280;42597;40.636;0.278;2023-02-03T09:28:29;98647.72;;;9.32;42.56
56719;BME280;42597;40.636;0.278;2023-02-03T09:30:59;98652.22;;;9.51;42.08
56719;BME280;42597;40.636;0.278;2023-02-03T09:33:25;98647.72;;;9.60;42.37
56719;BME280;42597;40.636;0.278;2023-02-03T09:35:52;98651.59;;;9.68;41.21
56719;BME280;42597;40.636;0.278;2023-02-03T09:38:19;98649.63;;;9.73;40.49
56719;BME280;42597;40.636;0.278;2023-02-03T09:40:50;98649.50;;;9.78;40.34
56719;BME280;42597;40.636;0.278;2023-02-03T09:45:45;98650.94;;;9.98;40.22
56719;BME280;42597;40.636;0.278;2023-02-03T09:48:15;98663.53;;;10.03;41.89
56719;BME280;42597;40.636;0.278;2023-02-03T09:50:45;98658.53;;;10.10;43.50
56719;BME280;42597;40.636;0.278;2023-02-03T09:55:48;98669.91;;;10.07;43.38
56719;BME280;42597;40.636;0.278;2023-02-03T09:58:16;98669.31;;;10.10;43.38
56719;BME280;42597;40.636;0.278;2023-02-03T10:00:56;98672.69;;;10.16;43.72
56719;BME280;42597;40.636;0.278;2023-02-03T10:06:04;98685.38;;;10.29;42.57
56719;BME280;42597;40.636;0.278;2023-02-03T10:14:10;98696.38;;;10.32;42.89
56719;BME280;42597;40.636;0.278;2023-02-03T10:19:16;98692.84;;;10.46;42.99
56719;BME280;42597;40.636;0.278;2023-02-03T10:21:57;98699.09;;;10.55;43.98
56719;BME280;42597;40.636;0.278;2023-02-03T10:24:33;98697.13;;;10.47;43.36
56719;BME280;42597;40.636;0.278;2023-02-03T10:27:02;98701.31;;;10.53;43.45
56719;BME280;42597;40.636;0.278;2023-02-03T10:29:38;98694.91;;;10.49;43.69
56719;BME280;42597;40.636;0.278;2023-02-03T10:32:13;98705.97;;;10.61;43.66
56719;BME280;42597;40.636;0.278;2023-02-03T10:34:46;98711.69;;;10.59;43.43
56719;BME280;42597;40.636;0.278;2023-02-03T10:37:25;98711.38;;;10.61;43.23
56719;BME280;42597;40.636;0.278;2023-02-03T10:39:53;98705.69;;;10.62;42.93
56719;BME280;42597;40.636;0.278;2023-02-03T10:42:20;98703.97;;;10.67;43.29
56719;BME280;42597;40.636;0.278;2023-02-03T10:44:56;98703.03;;;10.71;42.88
56719;BME280;42597;40.636;0.278;2023-02-03T10:47:27;98701.06;;;10.85;42.75
56719;BME280;42597;40.636;0.278;2023-02-03T10:50:03;98710.25;;;10.84;42.53
56719;BME280;42597;40.636;0.278;2023-02-03T10:52:31;98699.94;;;10.86;42.52
56719;BME280;42597;40.636;0.278;2023-02-03T10:55:03;98712.88;;;10.90;43.14
56719;BME280;42597;40.636;0.278;2023-02-03T10:57:29;98701.78;;;11.00;43.27
56719;BME280;42597;40.636;0.278;2023-02-03T11:00:19;98709.28;;;11.03;42.44
56719;BME280;42597;40.636;0.278;2023-02-03T11:02:58;98708.53;;;11.11;42.67
56719;BME280;42597;40.636;0.278;2023-02-03T11:05:28;98705.19;;;11.14;42.36
56719;BME280;42597;40.636;0.278;2023-02-03T11:07:54;98699.66;;;11.19;42.15
56719;BME280;42597;40.636;0.278;2023-02-03T11:10:36;98692.97;;;11.25;42.00
56719;BME280;42597;40.636;0.278;2023-02-03T11:20:52;98685.53;;;11.31;41.20
56719;BME280;42597;40.636;0.278;2023-02-03T11:23:18;98674.91;;;11.43;40.76
56719;BME280;42597;40.636;0.278;2023-02-03T11:25:44;98670.16;;;11.49;42.99
56719;BME280;42597;40.636;0.278;2023-02-03T11:28:12;98672.03;;;11.40;41.69
56719;BME280;42597;40.636;0.278;2023-02-03T11:30:38;98675.56;;;11.49;41.15
56719;BME280;42597;40.636;0.278;2023-02-03T11:33:16;98667.16;;;11.50;40.76
56719;BME280;42597;40.636;0.278;2023-02-03T11:35:56;98665.69;;;11.53;39.70
56719;BME280;42597;40.636;0.278;2023-02-03T11:38:33;98666.66;;;11.57;40.21
56719;BME280;42597;40.636;0.278;2023-02-03T11:41:03;98661.94;;;11.63;38.68
56719;BME280;42597;40.636;0.278;2023-02-03T11:43:29;98655.72;;;11.62;38.59
56719;BME280;42597;40.636;0.278;2023-02-03T11:46:03;98660.19;;;11.75;36.97
56719;BME280;42597;40.636;0.278;2023-02-03T11:48:35;98655.91;;;11.74;37.37
56719;BME280;42597;40.636;0.278;2023-02-03T11:51:03;98649.81;;;11.77;37.87
56719;BME280;42597;40.636;0.278;2023-02-03T11:54:01;98639.97;;;11.81;38.14
56719;BME280;42597;40.636;0.278;2023-02-03T11:59:36;98634.91;;;11.89;37.86
56719;BME280;42597;40.636;0.278;2023-02-03T12:05:19;98631.44;;;12.14;35.78
56719;BME280;42597;40.636;0.278;2023-02-03T12:08:04;98626.66;;;12.11;36.27
56719;BME280;42597;40.636;0.278;2023-02-03T12:16:27;98617.53;;;12.24;35.84
56719;BME280;42597;40.636;0.278;2023-02-03T12:19:03;98608.16;;;12.30;36.32
56719;BME280;42597;40.636;0.278;2023-02-03T12:29:56;98596.31;;;12.44;35.82
56719;BME280;42597;40.636;0.278;2023-02-03T12:32:37;98598.69;;;12.45;35.70
56719;BME280;42597;40.636;0.278;2023-02-03T12:35:26;98594.69;;;12.60;35.95
56719;BME280;42597;40.636;0.278;2023-02-03T12:40:52;98590.53;;;12.54;37.96
56719;BME280;42597;40.636;0.278;2023-02-03T12:43:38;98581.59;;;12.62;36.01
56719;BME280;42597;40.636;0.278;2023-02-03T12:48:51;98568.19;;;12.74;36.19
56719;BME280;42597;40.636;0.278;2023-02-03T12:54:52;98568.97;;;12.75;35.45
56719;BME280;42597;40.636;0.278;2023-02-03T13:03:15;98554.56;;;12.83;35.67
56719;BME280;42597;40.636;0.278;2023-02-03T13:08:24;98540.00;;;12.96;35.33
56719;BME280;42597;40.636;0.278;2023-02-03T13:13:51;98531.59;;;13.10;35.24
56719;BME280;42597;40.636;0.278;2023-02-03T13:16:24;98528.72;;;13.15;35.19
56719;BME280;42597;40.636;0.278;2023-02-03T13:19:02;98514.38;;;13.15;35.29
56719;BME280;42597;40.636;0.278;2023-02-03T13:21:30;98511.66;;;13.15;35.08
56719;BME280;42597;40.636;0.278;2023-02-03T13:23:56;98510.31;;;13.21;35.09
56719;BME280;42597;40.636;0.278;2023-02-03T13:37:16;98500.84;;;13.36;35.53
56719;BME280;42597;40.636;0.278;2023-02-03T13:39:52;98499.50;;;13.42;35.76
56719;BME280;42597;40.636;0.278;2023-02-03T13:42:31;98490.06;;;13.48;35.40
56719;BME280;42597;40.636;0.278;2023-02-03T13:47:50;98493.69;;;13.52;35.24
56719;BME280;42597;40.636;0.278;2023-02-03T13:50:26;98489.31;;;13.60;34.88
56719;BME280;42597;40.636;0.278;2023-02-03T13:52:57;98489.44;;;13.63;35.15
56719;BME280;42597;40.636;0.278;2023-02-03T13:58:37;98484.34;;;13.62;35.32
56719;BME280;42597;40.636;0.278;2023-02-03T14:01:36;98482.41;;;13.62;35.98
56719;BME280;42597;40.636;0.278;2023-02-03T14:03:56;98481.63;;;13.62;36.41
56719;BME280;42597;40.636;0.278;2023-02-03T14:09:20;98483.84;;;13.80;36.38
56719;BME280;42597;40.636;0.278;2023-02-03T14:11:48;98480.00;;;13.81;36.05
56719;BME280;42597;40.636;0.278;2023-02-03T14:16:48;98477.41;;;13.85;36.01
56719;BME280;42597;40.636;0.278;2023-02-03T14:24:11;98473.91;;;13.85;36.31
56719;BME280;42597;40.636;0.278;2023-02-03T14:29:08;98478.22;;;13.86;36.42
56719;BME280;42597;40.636;0.278;2023-02-03T14:32:01;98476.13;;;14.03;36.28
56719;BME280;42597;40.636;0.278;2023-02-03T14:34:31;98472.59;;;14.03;36.29
56719;BME280;42597;40.636;0.278;2023-02-03T14:37:20;98466.06;;;14.04;37.12
56719;BME280;42597;40.636;0.278;2023-02-03T14:59:34;98471.94;;;14.06;42.73
56719;BME280;42597;40.636;0.278;2023-02-03T15:04:27;98478.28;;;14.10;43.57
56719;BME280;42597;40.636;0.278;2023-02-03T15:06:53;98475.31;;;14.03;44.42
56719;BME280;42597;40.636;0.278;2023-02-03T15:11:47;98474.66;;;14.06;43.96
56719;BME280;42597;40.636;0.278;2023-02-03T15:14:25;98471.75;;;14.11;44.29
56719;BME280;42597;40.636;0.278;2023-02-03T15:16:58;98468.56;;;14.09;44.14
56719;BME280;42597;40.636;0.278;2023-02-03T15:19:27;98469.47;;;14.13;44.61
56719;BME280;42597;40.636;0.278;2023-02-03T15:21:53;98474.91;;;14.13;44.73
56719;BME280;42597;40.636;0.278;2023-02-03T15:24:20;98477.50;;;14.10;44.64
56719;BME280;42597;40.636;0.278;2023-02-03T15:26:50;98482.47;;;14.07;44.70
56719;BME280;42597;40.636;0.278;2023-02-03T15:29:29;98478.50;;;14.05;44.65
56719;BME280;42597;40.636;0.278;2023-02-03T15:32:19;98479.41;;;14.09;45.68
56719;BME280;42597;40.636;0.278;2023-02-03T15:34:48;98475.03;;;14.17;45.96
56719;BME280;42597;40.636;0.278;2023-02-03T15:40:07;98481.91;;;14.14;46.36
56719;BME280;42597;40.636;0.278;2023-02-03T15:47:57;98480.22;;;14.10;46.33
56719;BME280;42597;40.636;0.278;2023-02-03T15:53:14;98481.78;;;14.11;47.06
56719;BME280;42597;40.636;0.278;2023-02-03T15:55:48;98483.94;;;14.05;47.25